sensor_id;sensor_type;location;lat;lon;timestamp;P1;durP1;ratioP1;P2;durP2;ratioP2
36855;SDS011;22788;51.434;6.786;2023-02-12T00:01:59;38.53;;;19.80;;
36855;SDS011;22788;51.434;6.786;2023-02-12T00:04:27;34.27;;;19.10;;
36855;SDS011;22788;51.434;6.786;2023-02-12T00:06:53;44.50;;;24.67;;
36855;SDS011;22788;51.434;6.786;2023-02-12T00:09:19;41.33;;;21.93;;
36855;SDS011;22788;51.434;6.786;2023-02-12T00:11:45;51.73;;;25.30;;
36855;SDS011;22788;51.434;6.786;2023-02-12T00:14:11;42.47;;;23.37;;
36855;SDS011;22788;51.434;6.786;2023-02-12T00:16:37;43.93;;;23.57;;
36855;SDS011;22788;51.434;6.786;2023-02-12T00:19:03;49.47;;;26.83;;
36855;SDS011;22788;51.434;6.786;2023-02-12T00:21:30;43.70;;;24.60;;
36855;SDS011;22788;51.434;6.786;2023-02-12T00:23:56;35.80;;;22.20;;
36855;SDS011;22788;51.434;6.786;2023-02-12T00:26:23;45.53;;;24.37;;
36855;SDS011;22788;51.434;6.786;2023-02-12T00:28:49;37.20;;;21.27;;
36855;SDS011;22788;51.434;6.786;2023-02-12T00:31:17;36.93;;;20.80;;
36855;SDS011;22788;51.434;6.786;2023-02-12T00:33:44;35.77;;;19.70;;
36855;SDS011;22788;51.434;6.786;2023-02-12T00:36:12;48.33;;;25.47;;
36855;SDS011;22788;51.434;6.786;2023-02-12T00:38:41;45.40;;;25.10;;
36855;SDS011;22788;51.434;6.786;2023-02-12T00:41:07;42.83;;;23.33;;
36855;SDS011;22788;51.434;6.786;2023-02-12T00:43:33;33.87;;;19.40;;
36855;SDS011;22788;51.434;6.786;2023-02-12T00:45:59;36.00;;;20.67;;
36855;SDS011;22788;51.434;6.786;2023-02-12T00:48:25;31.20;;;18.30;;
36855;SDS011;22788;51.434;6.786;2023-02-12T00:50:51;33.90;;;18.23;;
36855;SDS011;22788;51.434;6.786;2023-02-12T00:53:17;34.07;;;19.67;;
36855;SDS011;22788;51.434;6.786;2023-02-12T00:55:45;34.37;;;19.90;;
36855;SDS011;22788;51.434;6.786;2023-02-12T00:58:11;38.73;;;22.23;;
36855;SDS011;22788;51.434;6.786;2023-02-12T01:00:37;34.60;;;19.80;;
36855;SDS011;22788;51.434;6.786;2023-02-12T01:03:03;39.23;;;20.70;;
36855;SDS011;22788;51.434;6.786;2023-02-12T01:05:29;33.07;;;19.43;;
36855;SDS011;22788;51.434;6.786;2023-02-12T01:07:56;45.27;;;23.27;;
36855;SDS011;22788;51.434;6.786;2023-02-12T01:10:22;33.23;;;19.03;;
36855;SDS011;22788;51.434;6.786;2023-02-12T01:12:50;31.13;;;17.53;;
36855;SDS011;22788;51.434;6.786;2023-02-12T01:15:16;30.27;;;16.77;;
36855;SDS011;22788;51.434;6.786;2023-02-12T01:17:43;28.57;;;17.00;;
36855;SDS011;22788;51.434;6.786;2023-02-12T01:20:10;32.30;;;18.00;;
36855;SDS011;22788;51.434;6.786;2023-02-12T01:22:37;32.37;;;19.57;;
36855;SDS011;22788;51.434;6.786;2023-02-12T01:25:04;37.17;;;20.57;;
36855;SDS011;22788;51.434;6.786;2023-02-12T01:27:31;31.73;;;20.13;;
36855;SDS011;22788;51.434;6.786;2023-02-12T01:29:59;39.97;;;21.40;;
36855;SDS011;22788;51.434;6.786;2023-02-12T01:32:25;29.90;;;17.60;;
36855;SDS011;22788;51.434;6.786;2023-02-12T01:34:51;30.33;;;17.07;;
36855;SDS011;22788;51.434;6.786;2023-02-12T01:37:17;34.13;;;18.73;;
36855;SDS011;22788;51.434;6.786;2023-02-12T01:39:43;33.07;;;19.10;;
36855;SDS011;22788;51.434;6.786;2023-02-12T01:42:10;32.00;;;18.23;;
36855;SDS011;22788;51.434;6.786;2023-02-12T01:44:38;27.67;;;17.17;;
36855;SDS011;22788;51.434;6.786;2023-02-12T01:47:13;31.23;;;18.10;;
36855;SDS011;22788;51.434;6.786;2023-02-12T01:49:42;27.30;;;16.50;;
36855;SDS011;22788;51.434;6.786;2023-02-12T01:52:12;38.70;;;21.13;;
36855;SDS011;22788;51.434;6.786;2023-02-12T01:54:41;32.87;;;18.27;;
36855;SDS011;22788;51.434;6.786;2023-02-12T01:57:08;41.30;;;23.67;;
36855;SDS011;22788;51.434;6.786;2023-02-12T01:59:36;49.00;;;25.23;;
36855;SDS011;22788;51.434;6.786;2023-02-12T02:02:03;40.20;;;22.27;;
36855;SDS011;22788;51.434;6.786;2023-02-12T02:04:32;33.57;;;19.73;;
36855;SDS011;22788;51.434;6.786;2023-02-12T02:07:04;26.07;;;15.83;;
36855;SDS011;22788;51.434;6.786;2023-02-12T02:09:33;30.03;;;16.23;;
36855;SDS011;22788;51.434;6.786;2023-02-12T02:12:02;27.87;;;16.77;;
36855;SDS011;22788;51.434;6.786;2023-02-12T02:14:28;39.23;;;22.10;;
36855;SDS011;22788;51.434;6.786;2023-02-12T02:16:56;39.00;;;20.20;;
36855;SDS011;22788;51.434;6.786;2023-02-12T02:19:40;37.27;;;21.23;;
36855;SDS011;22788;51.434;6.786;2023-02-12T02:22:30;28.73;;;17.07;;
36855;SDS011;22788;51.434;6.786;2023-02-12T02:25:16;44.43;;;23.33;;
36855;SDS011;22788;51.434;6.786;2023-02-12T02:28:02;33.60;;;20.77;;
36855;SDS011;22788;51.434;6.786;2023-02-12T02:30:39;27.20;;;16.73;;
36855;SDS011;22788;51.434;6.786;2023-02-12T02:33:17;27.03;;;17.70;;
36855;SDS011;22788;51.434;6.786;2023-02-12T02:35:51;33.30;;;18.43;;
36855;SDS011;22788;51.434;6.786;2023-02-12T02:38:23;32.60;;;19.47;;
36855;SDS011;22788;51.434;6.786;2023-02-12T02:41:01;35.17;;;20.07;;
36855;SDS011;22788;51.434;6.786;2023-02-12T02:43:33;34.40;;;19.17;;
36855;SDS011;22788;51.434;6.786;2023-02-12T02:46:05;28.93;;;16.77;;
36855;SDS011;22788;51.434;6.786;2023-02-12T02:48:35;30.87;;;18.37;;
36855;SDS011;22788;51.434;6.786;2023-02-12T02:51:03;34.87;;;18.70;;
36855;SDS011;22788;51.434;6.786;2023-02-12T02:53:34;30.03;;;18.43;;
36855;SDS011;22788;51.434;6.786;2023-02-12T02:56:05;29.43;;;18.17;;
36855;SDS011;22788;51.434;6.786;2023-02-12T02:58:34;27.33;;;15.30;;
36855;SDS011;22788;51.434;6.786;2023-02-12T03:01:06;33.73;;;20.60;;
36855;SDS011;22788;51.434;6.786;2023-02-12T03:03:35;33.60;;;19.67;;
36855;SDS011;22788;51.434;6.786;2023-02-12T03:06:06;35.50;;;18.03;;
36855;SDS011;22788;51.434;6.786;2023-02-12T03:08:37;30.23;;;17.93;;
36855;SDS011;22788;51.434;6.786;2023-02-12T03:11:08;52.30;;;27.27;;
36855;SDS011;22788;51.434;6.786;2023-02-12T03:13:40;42.83;;;23.93;;
36855;SDS011;22788;51.434;6.786;2023-02-12T03:16:12;41.47;;;23.80;;
36855;SDS011;22788;51.434;6.786;2023-02-12T03:18:43;30.83;;;17.17;;
36855;SDS011;22788;51.434;6.786;2023-02-12T03:21:18;26.63;;;16.67;;
36855;SDS011;22788;51.434;6.786;2023-02-12T03:23:51;28.03;;;17.23;;
36855;SDS011;22788;51.434;6.786;2023-02-12T03:26:22;27.67;;;16.57;;
36855;SDS011;22788;51.434;6.786;2023-02-12T03:28:52;30.27;;;17.50;;
36855;SDS011;22788;51.434;6.786;2023-02-12T03:31:23;27.37;;;17.67;;
36855;SDS011;22788;51.434;6.786;2023-02-12T03:33:58;31.67;;;18.20;;
36855;SDS011;22788;51.434;6.786;2023-02-12T03:36:32;30.97;;;18.20;;
36855;SDS011;22788;51.434;6.786;2023-02-12T03:39:07;29.77;;;16.77;;
36855;SDS011;22788;51.434;6.786;2023-02-12T03:41:38;31.70;;;17.77;;
36855;SDS011;22788;51.434;6.786;2023-02-12T03:44:08;26.47;;;16.43;;
36855;SDS011;22788;51.434;6.786;2023-02-12T03:46:41;29.60;;;17.33;;
36855;SDS011;22788;51.434;6.786;2023-02-12T03:49:15;27.73;;;15.07;;
36855;SDS011;22788;51.434;6.786;2023-02-12T03:51:45;24.43;;;15.57;;
36855;SDS011;22788;51.434;6.786;2023-02-12T03:54:13;32.43;;;18.10;;
36855;SDS011;22788;51.434;6.786;2023-02-12T03:56:43;36.67;;;20.03;;
36855;SDS011;22788;51.434;6.786;2023-02-12T03:59:11;31.83;;;19.93;;
36855;SDS011;22788;51.434;6.786;2023-02-12T04:01:37;27.83;;;17.90;;
36855;SDS011;22788;51.434;6.786;2023-02-12T04:04:06;45.27;;;23.50;;
36855;SDS011;22788;51.434;6.786;2023-02-12T04:06:33;32.87;;;19.43;;
36855;SDS011;22788;51.434;6.786;2023-02-12T04:09:00;41.77;;;23.33;;
36855;SDS011;22788;51.434;6.786;2023-02-12T04:11:29;44.97;;;23.20;;
36855;SDS011;22788;51.434;6.786;2023-02-12T04:14:07;43.27;;;22.10;;
36855;SDS011;22788;51.434;6.786;2023-02-12T04:16:43;30.70;;;17.17;;
36855;SDS011;22788;51.434;6.786;2023-02-12T04:19:15;29.60;;;17.40;;
36855;SDS011;22788;51.434;6.786;2023-02-12T04:21:50;29.73;;;17.97;;
36855;SDS011;22788;51.434;6.786;2023-02-12T04:24:26;26.97;;;15.37;;
36855;SDS011;22788;51.434;6.786;2023-02-12T04:27:01;38.17;;;19.90;;
36855;SDS011;22788;51.434;6.786;2023-02-12T04:29:36;31.00;;;18.17;;
36855;SDS011;22788;51.434;6.786;2023-02-12T04:32:10;29.13;;;17.13;;
36855;SDS011;22788;51.434;6.786;2023-02-12T04:34:43;27.77;;;16.07;;
36855;SDS011;22788;51.434;6.786;2023-02-12T04:37:14;28.30;;;16.20;;
36855;SDS011;22788;51.434;6.786;2023-02-12T04:39:42;29.50;;;17.20;;
36855;SDS011;22788;51.434;6.786;2023-02-12T04:42:10;27.93;;;16.70;;
36855;SDS011;22788;51.434;6.786;2023-02-12T04:44:37;27.03;;;17.07;;
36855;SDS011;22788;51.434;6.786;2023-02-12T04:47:04;29.60;;;17.00;;
36855;SDS011;22788;51.434;6.786;2023-02-12T04:49:30;24.97;;;15.97;;
36855;SDS011;22788;51.434;6.786;2023-02-12T04:51:58;23.70;;;14.67;;
36855;SDS011;22788;51.434;6.786;2023-02-12T04:54:24;26.40;;;15.70;;
36855;SDS011;22788;51.434;6.786;2023-02-12T04:56:50;30.00;;;16.73;;
36855;SDS011;22788;51.434;6.786;2023-02-12T04:59:16;29.07;;;16.97;;
36855;SDS011;22788;51.434;6.786;2023-02-12T05:01:42;24.03;;;16.80;;
36855;SDS011;22788;51.434;6.786;2023-02-12T05:04:09;30.07;;;16.23;;
36855;SDS011;22788;51.434;6.786;2023-02-12T05:06:36;32.87;;;17.80;;
36855;SDS011;22788;51.434;6.786;2023-02-12T05:09:05;30.93;;;17.20;;
36855;SDS011;22788;51.434;6.786;2023-02-12T05:11:32;30.40;;;18.20;;
36855;SDS011;22788;51.434;6.786;2023-02-12T05:13:58;26.77;;;16.53;;
36855;SDS011;22788;51.434;6.786;2023-02-12T05:16:24;30.80;;;18.93;;
36855;SDS011;22788;51.434;6.786;2023-02-12T05:18:51;27.50;;;17.13;;
36855;SDS011;22788;51.434;6.786;2023-02-12T05:21:17;27.17;;;16.80;;
36855;SDS011;22788;51.434;6.786;2023-02-12T05:23:43;26.50;;;15.40;;
36855;SDS011;22788;51.434;6.786;2023-02-12T05:26:11;28.53;;;17.50;;
36855;SDS011;22788;51.434;6.786;2023-02-12T05:28:38;28.87;;;17.33;;
36855;SDS011;22788;51.434;6.786;2023-02-12T05:31:05;29.57;;;17.87;;
36855;SDS011;22788;51.434;6.786;2023-02-12T05:33:33;29.07;;;16.10;;
36855;SDS011;22788;51.434;6.786;2023-02-12T05:36:01;25.07;;;15.90;;
36855;SDS011;22788;51.434;6.786;2023-02-12T05:38:28;27.80;;;15.60;;
36855;SDS011;22788;51.434;6.786;2023-02-12T05:40:59;29.63;;;16.07;;
36855;SDS011;22788;51.434;6.786;2023-02-12T05:43:27;23.73;;;14.73;;
36855;SDS011;22788;51.434;6.786;2023-02-12T05:45:53;29.97;;;17.67;;
36855;SDS011;22788;51.434;6.786;2023-02-12T05:48:19;25.67;;;15.77;;
36855;SDS011;22788;51.434;6.786;2023-02-12T05:50:45;30.77;;;17.93;;
36855;SDS011;22788;51.434;6.786;2023-02-12T05:53:11;28.37;;;17.63;;
36855;SDS011;22788;51.434;6.786;2023-02-12T05:55:37;25.87;;;15.20;;
36855;SDS011;22788;51.434;6.786;2023-02-12T05:58:03;30.20;;;18.17;;
36855;SDS011;22788;51.434;6.786;2023-02-12T06:00:31;25.70;;;16.50;;
36855;SDS011;22788;51.434;6.786;2023-02-12T06:02:57;27.53;;;15.93;;
36855;SDS011;22788;51.434;6.786;2023-02-12T06:05:23;32.03;;;17.53;;
36855;SDS011;22788;51.434;6.786;2023-02-12T06:07:49;27.30;;;15.57;;
36855;SDS011;22788;51.434;6.786;2023-02-12T06:10:15;27.63;;;15.80;;
36855;SDS011;22788;51.434;6.786;2023-02-12T06:12:41;26.20;;;15.97;;
36855;SDS011;22788;51.434;6.786;2023-02-12T06:15:08;26.73;;;16.50;;
36855;SDS011;22788;51.434;6.786;2023-02-12T06:17:35;27.30;;;15.47;;
36855;SDS011;22788;51.434;6.786;2023-02-12T06:20:01;31.33;;;17.50;;
36855;SDS011;22788;51.434;6.786;2023-02-12T06:22:28;33.47;;;19.30;;
36855;SDS011;22788;51.434;6.786;2023-02-12T06:24:54;27.57;;;16.67;;
36855;SDS011;22788;51.434;6.786;2023-02-12T06:27:20;26.23;;;16.53;;
36855;SDS011;22788;51.434;6.786;2023-02-12T06:29:46;28.33;;;15.17;;
36855;SDS011;22788;51.434;6.786;2023-02-12T06:32:12;31.97;;;16.50;;
36855;SDS011;22788;51.434;6.786;2023-02-12T06:34:39;26.07;;;16.57;;
36855;SDS011;22788;51.434;6.786;2023-02-12T06:37:05;26.70;;;15.37;;
36855;SDS011;22788;51.434;6.786;2023-02-12T06:39:31;25.70;;;15.63;;
36855;SDS011;22788;51.434;6.786;2023-02-12T06:41:57;24.27;;;15.17;;
36855;SDS011;22788;51.434;6.786;2023-02-12T06:44:23;26.80;;;15.93;;
36855;SDS011;22788;51.434;6.786;2023-02-12T06:46:49;25.07;;;15.83;;
36855;SDS011;22788;51.434;6.786;2023-02-12T06:49:15;27.47;;;16.03;;
36855;SDS011;22788;51.434;6.786;2023-02-12T06:51:43;23.83;;;15.13;;
36855;SDS011;22788;51.434;6.786;2023-02-12T06:54:13;26.37;;;15.23;;
36855;SDS011;22788;51.434;6.786;2023-02-12T06:56:40;28.80;;;15.83;;
36855;SDS011;22788;51.434;6.786;2023-02-12T06:59:09;28.93;;;15.80;;
36855;SDS011;22788;51.434;6.786;2023-02-12T07:01:38;25.83;;;15.63;;
36855;SDS011;22788;51.434;6.786;2023-02-12T07:04:04;28.30;;;16.93;;
36855;SDS011;22788;51.434;6.786;2023-02-12T07:06:30;27.07;;;15.70;;
36855;SDS011;22788;51.434;6.786;2023-02-12T07:09:00;27.73;;;16.63;;
36855;SDS011;22788;51.434;6.786;2023-02-12T07:11:28;28.60;;;17.07;;
36855;SDS011;22788;51.434;6.786;2023-02-12T07:13:55;28.83;;;17.40;;
36855;SDS011;22788;51.434;6.786;2023-02-12T07:16:21;26.17;;;17.13;;
36855;SDS011;22788;51.434;6.786;2023-02-12T07:18:47;29.13;;;16.33;;
36855;SDS011;22788;51.434;6.786;2023-02-12T07:21:14;28.20;;;16.90;;
36855;SDS011;22788;51.434;6.786;2023-02-12T07:23:41;27.80;;;16.57;;
36855;SDS011;22788;51.434;6.786;2023-02-12T07:26:12;27.50;;;16.73;;
36855;SDS011;22788;51.434;6.786;2023-02-12T07:28:39;26.37;;;15.17;;
36855;SDS011;22788;51.434;6.786;2023-02-12T07:31:06;28.03;;;16.53;;
36855;SDS011;22788;51.434;6.786;2023-02-12T07:33:33;27.03;;;17.57;;
36855;SDS011;22788;51.434;6.786;2023-02-12T07:36:00;25.07;;;16.97;;
36855;SDS011;22788;51.434;6.786;2023-02-12T07:38:27;30.80;;;17.67;;
36855;SDS011;22788;51.434;6.786;2023-02-12T07:40:53;28.20;;;17.23;;
36855;SDS011;22788;51.434;6.786;2023-02-12T07:43:21;26.30;;;15.80;;
36855;SDS011;22788;51.434;6.786;2023-02-12T07:45:47;27.47;;;17.17;;
36855;SDS011;22788;51.434;6.786;2023-02-12T07:48:13;29.63;;;17.67;;
36855;SDS011;22788;51.434;6.786;2023-02-12T07:50:39;28.80;;;17.93;;
36855;SDS011;22788;51.434;6.786;2023-02-12T07:53:05;25.97;;;15.60;;
36855;SDS011;22788;51.434;6.786;2023-02-12T07:55:31;30.70;;;17.10;;
36855;SDS011;22788;51.434;6.786;2023-02-12T07:57:57;24.47;;;15.60;;
36855;SDS011;22788;51.434;6.786;2023-02-12T08:00:24;27.27;;;16.33;;
36855;SDS011;22788;51.434;6.786;2023-02-12T08:02:51;26.40;;;16.63;;
36855;SDS011;22788;51.434;6.786;2023-02-12T08:05:17;29.07;;;17.13;;
36855;SDS011;22788;51.434;6.786;2023-02-12T08:07:43;24.70;;;15.30;;
36855;SDS011;22788;51.434;6.786;2023-02-12T08:10:09;28.43;;;16.90;;
36855;SDS011;22788;51.434;6.786;2023-02-12T08:12:36;27.80;;;16.73;;
36855;SDS011;22788;51.434;6.786;2023-02-12T08:15:02;26.33;;;15.13;;
36855;SDS011;22788;51.434;6.786;2023-02-12T08:17:29;31.10;;;17.67;;
36855;SDS011;22788;51.434;6.786;2023-02-12T08:19:55;26.87;;;16.13;;
36855;SDS011;22788;51.434;6.786;2023-02-12T08:22:21;26.33;;;15.37;;
36855;SDS011;22788;51.434;6.786;2023-02-12T08:24:47;28.77;;;17.10;;
36855;SDS011;22788;51.434;6.786;2023-02-12T08:27:13;29.73;;;16.67;;
36855;SDS011;22788;51.434;6.786;2023-02-12T08:29:39;29.03;;;17.10;;
36855;SDS011;22788;51.434;6.786;2023-02-12T08:32:06;38.83;;;20.30;;
36855;SDS011;22788;51.434;6.786;2023-02-12T08:34:33;30.50;;;16.73;;
36855;SDS011;22788;51.434;6.786;2023-02-12T08:37:00;33.90;;;19.03;;
36855;SDS011;22788;51.434;6.786;2023-02-12T08:39:28;25.00;;;16.03;;
36855;SDS011;22788;51.434;6.786;2023-02-12T08:41:54;36.50;;;19.53;;
36855;SDS011;22788;51.434;6.786;2023-02-12T08:44:22;30.03;;;17.00;;
36855;SDS011;22788;51.434;6.786;2023-02-12T08:46:49;32.17;;;17.80;;
36855;SDS011;22788;51.434;6.786;2023-02-12T08:49:17;35.23;;;18.60;;
36855;SDS011;22788;51.434;6.786;2023-02-12T08:51:46;30.97;;;17.93;;
36855;SDS011;22788;51.434;6.786;2023-02-12T08:54:13;28.17;;;16.50;;
36855;SDS011;22788;51.434;6.786;2023-02-12T08:56:41;28.37;;;15.43;;
36855;SDS011;22788;51.434;6.786;2023-02-12T08:59:08;30.93;;;16.83;;
36855;SDS011;22788;51.434;6.786;2023-02-12T09:01:36;28.43;;;17.63;;
36855;SDS011;22788;51.434;6.786;2023-02-12T09:04:03;30.47;;;17.03;;
36855;SDS011;22788;51.434;6.786;2023-02-12T09:06:30;35.73;;;20.57;;
36855;SDS011;22788;51.434;6.786;2023-02-12T09:08:58;36.27;;;20.33;;
36855;SDS011;22788;51.434;6.786;2023-02-12T09:11:26;30.37;;;18.53;;
36855;SDS011;22788;51.434;6.786;2023-02-12T09:13:53;39.77;;;20.80;;
36855;SDS011;22788;51.434;6.786;2023-02-12T09:16:19;34.60;;;19.10;;
36855;SDS011;22788;51.434;6.786;2023-02-12T09:18:45;35.40;;;20.37;;
36855;SDS011;22788;51.434;6.786;2023-02-12T09:21:11;48.07;;;24.90;;
36855;SDS011;22788;51.434;6.786;2023-02-12T09:23:39;35.97;;;20.33;;
36855;SDS011;22788;51.434;6.786;2023-02-12T09:26:07;41.10;;;20.30;;
36855;SDS011;22788;51.434;6.786;2023-02-12T09:28:36;52.90;;;26.10;;
36855;SDS011;22788;51.434;6.786;2023-02-12T09:31:03;47.23;;;24.23;;
36855;SDS011;22788;51.434;6.786;2023-02-12T09:33:30;53.33;;;27.20;;
36855;SDS011;22788;51.434;6.786;2023-02-12T09:35:59;51.13;;;24.63;;
36855;SDS011;22788;51.434;6.786;2023-02-12T09:38:26;34.20;;;18.97;;
36855;SDS011;22788;51.434;6.786;2023-02-12T09:40:58;43.40;;;23.63;;
36855;SDS011;22788;51.434;6.786;2023-02-12T09:43:35;37.90;;;19.43;;
36855;SDS011;22788;51.434;6.786;2023-02-12T09:46:09;41.03;;;20.93;;
36855;SDS011;22788;51.434;6.786;2023-02-12T09:48:47;44.43;;;23.30;;
36855;SDS011;22788;51.434;6.786;2023-02-12T09:51:20;38.10;;;21.37;;
36855;SDS011;22788;51.434;6.786;2023-02-12T09:53:47;43.17;;;22.53;;
36855;SDS011;22788;51.434;6.786;2023-02-12T09:56:19;40.13;;;19.80;;
36855;SDS011;22788;51.434;6.786;2023-02-12T09:58:48;49.30;;;25.03;;
36855;SDS011;22788;51.434;6.786;2023-02-12T10:01:17;37.20;;;21.50;;
36855;SDS011;22788;51.434;6.786;2023-02-12T10:03:45;43.27;;;23.37;;
36855;SDS011;22788;51.434;6.786;2023-02-12T10:06:13;36.57;;;19.67;;
36855;SDS011;22788;51.434;6.786;2023-02-12T10:08:45;39.47;;;22.87;;
36855;SDS011;22788;51.434;6.786;2023-02-12T10:11:27;35.57;;;20.73;;
36855;SDS011;22788;51.434;6.786;2023-02-12T10:14:10;40.77;;;20.93;;
36855;SDS011;22788;51.434;6.786;2023-02-12T10:16:47;35.90;;;20.40;;
36855;SDS011;22788;51.434;6.786;2023-02-12T10:19:22;37.07;;;20.23;;
36855;SDS011;22788;51.434;6.786;2023-02-12T10:21:58;32.50;;;18.77;;
36855;SDS011;22788;51.434;6.786;2023-02-12T10:24:35;35.97;;;20.70;;
36855;SDS011;22788;51.434;6.786;2023-02-12T10:27:10;43.03;;;23.27;;
36855;SDS011;22788;51.434;6.786;2023-02-12T10:29:40;42.77;;;22.80;;
36855;SDS011;22788;51.434;6.786;2023-02-12T10:32:11;44.33;;;23.17;;
36855;SDS011;22788;51.434;6.786;2023-02-12T10:34:45;45.33;;;24.10;;
36855;SDS011;22788;51.434;6.786;2023-02-12T10:37:14;48.43;;;26.30;;
36855;SDS011;22788;51.434;6.786;2023-02-12T10:39:51;47.13;;;25.13;;
36855;SDS011;22788;51.434;6.786;2023-02-12T10:42:21;51.03;;;26.20;;
36855;SDS011;22788;51.434;6.786;2023-02-12T10:44:59;48.87;;;26.77;;
36855;SDS011;22788;51.434;6.786;2023-02-12T10:47:25;46.30;;;26.33;;
36855;SDS011;22788;51.434;6.786;2023-02-12T10:49:54;48.93;;;26.80;;
36855;SDS011;22788;51.434;6.786;2023-02-12T10:52:24;44.97;;;23.83;;
36855;SDS011;22788;51.434;6.786;2023-02-12T10:55:01;37.97;;;21.40;;
36855;SDS011;22788;51.434;6.786;2023-02-12T10:57:28;49.77;;;27.30;;
36855;SDS011;22788;51.434;6.786;2023-02-12T10:59:56;51.07;;;25.63;;
36855;SDS011;22788;51.434;6.786;2023-02-12T11:02:58;45.73;;;25.23;;
36855;SDS011;22788;51.434;6.786;2023-02-12T11:05:28;47.20;;;25.97;;
36855;SDS011;22788;51.434;6.786;2023-02-12T11:07:55;44.33;;;23.67;;
36855;SDS011;22788;51.434;6.786;2023-02-12T11:10:24;45.97;;;22.00;;
36855;SDS011;22788;51.434;6.786;2023-02-12T11:12:52;42.87;;;23.97;;
36855;SDS011;22788;51.434;6.786;2023-02-12T11:15:21;44.33;;;25.57;;
36855;SDS011;22788;51.434;6.786;2023-02-12T11:17:54;43.47;;;25.03;;
36855;SDS011;22788;51.434;6.786;2023-02-12T11:20:23;46.27;;;22.83;;
36855;SDS011;22788;51.434;6.786;2023-02-12T11:22:55;45.30;;;23.80;;
36855;SDS011;22788;51.434;6.786;2023-02-12T11:25:23;42.50;;;23.37;;
36855;SDS011;22788;51.434;6.786;2023-02-12T11:27:58;48.83;;;25.03;;
36855;SDS011;22788;51.434;6.786;2023-02-12T11:30:27;37.87;;;21.27;;
36855;SDS011;22788;51.434;6.786;2023-02-12T11:32:55;44.17;;;23.83;;
36855;SDS011;22788;51.434;6.786;2023-02-12T11:35:46;47.10;;;25.17;;
36855;SDS011;22788;51.434;6.786;2023-02-12T11:38:16;45.70;;;23.07;;
36855;SDS011;22788;51.434;6.786;2023-02-12T11:40:54;35.83;;;19.77;;
36855;SDS011;22788;51.434;6.786;2023-02-12T11:43:22;38.87;;;21.80;;
36855;SDS011;22788;51.434;6.786;2023-02-12T11:45:51;39.43;;;22.77;;
36855;SDS011;22788;51.434;6.786;2023-02-12T11:48:19;43.53;;;24.10;;
36855;SDS011;22788;51.434;6.786;2023-02-12T11:50:49;43.73;;;23.97;;
36855;SDS011;22788;51.434;6.786;2023-02-12T11:53:19;40.23;;;23.50;;
36855;SDS011;22788;51.434;6.786;2023-02-12T11:55:52;39.97;;;23.80;;
36855;SDS011;22788;51.434;6.786;2023-02-12T11:58:20;43.63;;;24.97;;
36855;SDS011;22788;51.434;6.786;2023-02-12T12:00:49;41.47;;;21.83;;
36855;SDS011;22788;51.434;6.786;2023-02-12T12:03:20;41.23;;;22.93;;
36855;SDS011;22788;51.434;6.786;2023-02-12T12:05:50;38.40;;;22.00;;
36855;SDS011;22788;51.434;6.786;2023-02-12T12:08:19;34.27;;;19.70;;
36855;SDS011;22788;51.434;6.786;2023-02-12T12:10:50;43.83;;;23.20;;
36855;SDS011;22788;51.434;6.786;2023-02-12T12:13:22;42.33;;;23.27;;
36855;SDS011;22788;51.434;6.786;2023-02-12T12:15:55;39.57;;;23.40;;
36855;SDS011;22788;51.434;6.786;2023-02-12T12:18:30;40.70;;;22.10;;
36855;SDS011;22788;51.434;6.786;2023-02-12T12:21:02;38.93;;;22.03;;
36855;SDS011;22788;51.434;6.786;2023-02-12T12:23:36;41.67;;;22.10;;
36855;SDS011;22788;51.434;6.786;2023-02-12T12:26:07;36.57;;;20.97;;
36855;SDS011;22788;51.434;6.786;2023-02-12T12:28:40;45.03;;;23.20;;
36855;SDS011;22788;51.434;6.786;2023-02-12T12:31:13;45.10;;;23.63;;
36855;SDS011;22788;51.434;6.786;2023-02-12T12:33:45;42.97;;;23.73;;
36855;SDS011;22788;51.434;6.786;2023-02-12T12:39:26;48.17;;;23.00;;
36855;SDS011;22788;51.434;6.786;2023-02-12T12:42:12;41.60;;;23.43;;
36855;SDS011;22788;51.434;6.786;2023-02-12T12:47:53;43.27;;;22.27;;
36855;SDS011;22788;51.434;6.786;2023-02-12T12:50:31;46.20;;;24.00;;
36855;SDS011;22788;51.434;6.786;2023-02-12T12:53:13;40.57;;;23.40;;
36855;SDS011;22788;51.434;6.786;2023-02-12T12:55:51;39.33;;;21.63;;
36855;SDS011;22788;51.434;6.786;2023-02-12T12:58:32;39.60;;;22.00;;
36855;SDS011;22788;51.434;6.786;2023-02-12T13:01:11;52.83;;;32.90;;
36855;SDS011;22788;51.434;6.786;2023-02-12T13:06:46;42.70;;;23.87;;
36855;SDS011;22788;51.434;6.786;2023-02-12T13:09:23;45.30;;;27.13;;
36855;SDS011;22788;51.434;6.786;2023-02-12T13:12:37;46.13;;;24.97;;
36855;SDS011;22788;51.434;6.786;2023-02-12T13:15:20;45.80;;;24.43;;
36855;SDS011;22788;51.434;6.786;2023-02-12T13:17:54;43.17;;;24.67;;
36855;SDS011;22788;51.434;6.786;2023-02-12T13:20:30;46.70;;;24.57;;
36855;SDS011;22788;51.434;6.786;2023-02-12T13:23:06;45.17;;;25.27;;
36855;SDS011;22788;51.434;6.786;2023-02-12T13:25:39;43.30;;;24.73;;
36855;SDS011;22788;51.434;6.786;2023-02-12T13:28:13;41.77;;;23.17;;
36855;SDS011;22788;51.434;6.786;2023-02-12T13:30:44;38.17;;;22.40;;
36855;SDS011;22788;51.434;6.786;2023-02-12T13:33:15;46.63;;;23.00;;
36855;SDS011;22788;51.434;6.786;2023-02-12T13:35:46;47.50;;;24.60;;
36855;SDS011;22788;51.434;6.786;2023-02-12T13:38:18;39.47;;;21.83;;
36855;SDS011;22788;51.434;6.786;2023-02-12T13:40:49;41.07;;;22.03;;
36855;SDS011;22788;51.434;6.786;2023-02-12T13:43:23;43.27;;;22.73;;
36855;SDS011;22788;51.434;6.786;2023-02-12T13:46:05;43.23;;;22.47;;
36855;SDS011;22788;51.434;6.786;2023-02-12T13:48:40;40.87;;;23.00;;
36855;SDS011;22788;51.434;6.786;2023-02-12T13:51:19;42.83;;;23.53;;
36855;SDS011;22788;51.434;6.786;2023-02-12T13:53:57;45.87;;;24.30;;
36855;SDS011;22788;51.434;6.786;2023-02-12T13:56:33;42.00;;;23.23;;
36855;SDS011;22788;51.434;6.786;2023-02-12T13:59:19;43.37;;;21.83;;
36855;SDS011;22788;51.434;6.786;2023-02-12T14:02:04;42.83;;;21.23;;
36855;SDS011;22788;51.434;6.786;2023-02-12T14:04:53;34.83;;;19.47;;
36855;SDS011;22788;51.434;6.786;2023-02-12T14:07:22;41.73;;;22.00;;
36855;SDS011;22788;51.434;6.786;2023-02-12T14:09:59;45.53;;;23.50;;
36855;SDS011;22788;51.434;6.786;2023-02-12T14:12:27;43.57;;;22.93;;
36855;SDS011;22788;51.434;6.786;2023-02-12T14:15:03;42.10;;;21.40;;
36855;SDS011;22788;51.434;6.786;2023-02-12T14:17:38;42.47;;;21.43;;
36855;SDS011;22788;51.434;6.786;2023-02-12T14:20:06;41.57;;;23.47;;
36855;SDS011;22788;51.434;6.786;2023-02-12T14:25:54;49.47;;;22.07;;
36855;SDS011;22788;51.434;6.786;2023-02-12T14:28:27;38.40;;;21.50;;
36855;SDS011;22788;51.434;6.786;2023-02-12T14:40:30;40.07;;;22.00;;
36855;SDS011;22788;51.434;6.786;2023-02-12T14:43:02;41.60;;;22.87;;
36855;SDS011;22788;51.434;6.786;2023-02-12T14:45:47;43.63;;;22.30;;
36855;SDS011;22788;51.434;6.786;2023-02-12T14:51:05;40.73;;;22.70;;
36855;SDS011;22788;51.434;6.786;2023-02-12T14:53:40;40.03;;;21.87;;
36855;SDS011;22788;51.434;6.786;2023-02-12T14:56:08;38.50;;;20.63;;
36855;SDS011;22788;51.434;6.786;2023-02-12T14:58:34;36.83;;;21.57;;
36855;SDS011;22788;51.434;6.786;2023-02-12T15:01:01;29.67;;;17.30;;
36855;SDS011;22788;51.434;6.786;2023-02-12T15:03:31;36.73;;;20.97;;